sensor_id;sensor_type;location;lat;lon;timestamp;temperature;humidity
3548;DHT22;1788;49.400;11.092;2023-06-14T00:00:45;19.30;40.00
3548;DHT22;1788;49.400;11.092;2023-06-14T00:03:12;19.30;40.00
3548;DHT22;1788;49.400;11.092;2023-06-14T00:05:39;19.30;40.00
3548;DHT22;1788;49.400;11.092;2023-06-14T00:08:06;19.30;40.00
3548;DHT22;1788;49.400;11.092;2023-06-14T00:10:32;19.40;40.10
3548;DHT22;1788;49.400;11.092;2023-06-14T00:12:59;19.40;40.10
3548;DHT22;1788;49.400;11.092;2023-06-14T00:15:26;19.40;40.10
3548;DHT22;1788;49.400;11.092;2023-06-14T00:17:53;19.40;40.10
3548;DHT22;1788;49.400;11.092;2023-06-14T00:20:20;19.40;40.00
3548;DHT22;1788;49.400;11.092;2023-06-14T00:22:46;19.50;40.10
3548;DHT22;1788;49.400;11.092;2023-06-14T00:25:13;19.50;40.00
3548;DHT22;1788;49.400;11.092;2023-06-14T00:27:40;19.50;40.00
3548;DHT22;1788;49.400;11.092;2023-06-14T00:30:07;19.50;40.00
3548;DHT22;1788;49.400;11.092;2023-06-14T00:32:34;19.50;40.60
3548;DHT22;1788;49.400;11.092;2023-06-14T00:35:01;19.50;40.00
3548;DHT22;1788;49.400;11.092;2023-06-14T00:37:27;19.50;40.00
3548;DHT22;1788;49.400;11.092;2023-06-14T00:39:54;19.40;40.00
3548;DHT22;1788;49.400;11.092;2023-06-14T00:44:48;19.30;40.00
3548;DHT22;1788;49.400;11.092;2023-06-14T00:47:14;19.30;40.00
3548;DHT22;1788;49.400;11.092;2023-06-14T00:49:42;19.30;40.30
3548;DHT22;1788;49.400;11.092;2023-06-14T00:52:08;19.20;40.20
3548;DHT22;1788;49.400;11.092;2023-06-14T00:54:36;19.10;40.90
3548;DHT22;1788;49.400;11.092;2023-06-14T00:57:02;19.10;40.40
3548;DHT22;1788;49.400;11.092;2023-06-14T00:59:29;19.10;40.60
3548;DHT22;1788;49.400;11.092;2023-06-14T01:01:56;19.10;40.70
3548;DHT22;1788;49.400;11.092;2023-06-14T01:04:22;19.00;40.80
3548;DHT22;1788;49.400;11.092;2023-06-14T01:11:47;18.80;41.40
3548;DHT22;1788;49.400;11.092;2023-06-14T01:14:10;18.70;41.30
3548;DHT22;1788;49.400;11.092;2023-06-14T01:16:37;18.70;41.40
3548;DHT22;1788;49.400;11.092;2023-06-14T01:19:04;18.70;41.60
3548;DHT22;1788;49.400;11.092;2023-06-14T01:21:31;18.60;41.70
3548;DHT22;1788;49.400;11.092;2023-06-14T01:23:57;18.50;41.80
3548;DHT22;1788;49.400;11.092;2023-06-14T01:26:25;18.40;42.10
3548;DHT22;1788;49.400;11.092;2023-06-14T01:28:51;18.40;42.10
3548;DHT22;1788;49.400;11.092;2023-06-14T01:31:20;18.40;42.20
3548;DHT22;1788;49.400;11.092;2023-06-14T01:33:44;18.30;42.30
3548;DHT22;1788;49.400;11.092;2023-06-14T01:36:11;18.30;42.50
3548;DHT22;1788;49.400;11.092;2023-06-14T01:38:38;18.20;42.70
3548;DHT22;1788;49.400;11.092;2023-06-14T01:41:05;18.20;42.70
3548;DHT22;1788;49.400;11.092;2023-06-14T01:43:32;18.10;43.00
3548;DHT22;1788;49.400;11.092;2023-06-14T01:45:59;18.10;42.90
3548;DHT22;1788;49.400;11.092;2023-06-14T01:48:26;18.00;43.10
3548;DHT22;1788;49.400;11.092;2023-06-14T01:50:53;18.00;43.00
3548;DHT22;1788;49.400;11.092;2023-06-14T01:53:20;18.00;43.10
3548;DHT22;1788;49.400;11.092;2023-06-14T01:55:46;18.00;43.20
3548;DHT22;1788;49.400;11.092;2023-06-14T01:58:13;18.00;43.20
3548;DHT22;1788;49.400;11.092;2023-06-14T02:00:40;17.90;43.40
3548;DHT22;1788;49.400;11.092;2023-06-14T02:03:07;17.90;43.30
3548;DHT22;1788;49.400;11.092;2023-06-14T02:05:34;17.80;43.40
3548;DHT22;1788;49.400;11.092;2023-06-14T02:08:01;17.80;43.40
3548;DHT22;1788;49.400;11.092;2023-06-14T02:10:27;17.80;43.50
3548;DHT22;1788;49.400;11.092;2023-06-14T02:12:54;17.70;43.60
3548;DHT22;1788;49.400;11.092;2023-06-14T02:15:21;17.70;43.70
3548;DHT22;1788;49.400;11.092;2023-06-14T02:17:48;17.50;43.80
3548;DHT22;1788;49.400;11.092;2023-06-14T02:20:15;17.50;43.80
3548;DHT22;1788;49.400;11.092;2023-06-14T02:22:42;17.50;44.70
3548;DHT22;1788;49.400;11.092;2023-06-14T02:25:09;17.40;44.00
3548;DHT22;1788;49.400;11.092;2023-06-14T02:27:37;17.40;43.90
3548;DHT22;1788;49.400;11.092;2023-06-14T02:32:30;17.30;44.30
3548;DHT22;1788;49.400;11.092;2023-06-14T02:34:57;17.30;44.40
3548;DHT22;1788;49.400;11.092;2023-06-14T02:37:23;17.20;44.40
3548;DHT22;1788;49.400;11.092;2023-06-14T02:39:51;17.00;44.50
3548;DHT22;1788;49.400;11.092;2023-06-14T02:42:17;17.00;44.50
3548;DHT22;1788;49.400;11.092;2023-06-14T02:44:45;17.00;44.70
3548;DHT22;1788;49.400;11.092;2023-06-14T02:47:11;16.90;44.60
3548;DHT22;1788;49.400;11.092;2023-06-14T02:49:38;16.90;44.80
3548;DHT22;1788;49.400;11.092;2023-06-14T02:52:05;16.90;44.90
3548;DHT22;1788;49.400;11.092;2023-06-14T02:54:31;16.80;45.00
3548;DHT22;1788;49.400;11.092;2023-06-14T02:56:59;16.70;45.20
3548;DHT22;1788;49.400;11.092;2023-06-14T02:59:25;16.70;45.20
3548;DHT22;1788;49.400;11.092;2023-06-14T03:01:53;16.60;45.90
3548;DHT22;1788;49.400;11.092;2023-06-14T03:04:19;16.60;45.30
3548;DHT22;1788;49.400;11.092;2023-06-14T03:06:47;16.50;45.50
3548;DHT22;1788;49.400;11.092;2023-06-14T03:09:13;16.50;45.50
3548;DHT22;1788;49.400;11.092;2023-06-14T03:11:40;16.50;45.60
3548;DHT22;1788;49.400;11.092;2023-06-14T03:14:06;16.40;46.20
3548;DHT22;1788;49.400;11.092;2023-06-14T03:16:34;16.40;45.80
3548;DHT22;1788;49.400;11.092;2023-06-14T03:19:00;16.30;45.80
3548;DHT22;1788;49.400;11.092;2023-06-14T03:21:27;16.30;45.90
3548;DHT22;1788;49.400;11.092;2023-06-14T03:23:54;16.30;46.00
3548;DHT22;1788;49.400;11.092;2023-06-14T03:26:21;16.20;46.20
3548;DHT22;1788;49.400;11.092;2023-06-14T03:28:48;16.20;46.20
3548;DHT22;1788;49.400;11.092;2023-06-14T03:31:14;16.20;46.20
3548;DHT22;1788;49.400;11.092;2023-06-14T03:33:41;16.10;46.30
3548;DHT22;1788;49.400;11.092;2023-06-14T03:36:08;16.10;46.50
3548;DHT22;1788;49.400;11.092;2023-06-14T03:38:34;16.10;46.60
3548;DHT22;1788;49.400;11.092;2023-06-14T03:41:01;16.00;46.60
3548;DHT22;1788;49.400;11.092;2023-06-14T03:43:27;16.00;46.80
3548;DHT22;1788;49.400;11.092;2023-06-14T03:45:54;16.00;46.90
3548;DHT22;1788;49.400;11.092;2023-06-14T03:48:21;16.00;47.00
3548;DHT22;1788;49.400;11.092;2023-06-14T03:50:47;15.90;47.00
3548;DHT22;1788;49.400;11.092;2023-06-14T03:53:14;15.90;47.10
3548;DHT22;1788;49.400;11.092;2023-06-14T03:55:40;15.90;47.20
3548;DHT22;1788;49.400;11.092;2023-06-14T03:58:08;15.90;47.30
3548;DHT22;1788;49.400;11.092;2023-06-14T04:00:35;15.80;47.30
3548;DHT22;1788;49.400;11.092;2023-06-14T04:03:01;15.80;47.40
3548;DHT22;1788;49.400;11.092;2023-06-14T04:05:28;15.80;47.50
3548;DHT22;1788;49.400;11.092;2023-06-14T04:07:55;15.80;47.70
3548;DHT22;1788;49.400;11.092;2023-06-14T04:10:22;15.80;47.70
3548;DHT22;1788;49.400;11.092;2023-06-14T04:12:49;15.80;47.90
3548;DHT22;1788;49.400;11.092;2023-06-14T04:15:16;15.80;47.90
3548;DHT22;1788;49.400;11.092;2023-06-14T04:17:44;15.80;48.00
3548;DHT22;1788;49.400;11.092;2023-06-14T04:20:11;15.80;48.00
3548;DHT22;1788;49.400;11.092;2023-06-14T04:22:37;15.80;48.10
3548;DHT22;1788;49.400;11.092;2023-06-14T04:25:04;15.80;48.20
3548;DHT22;1788;49.400;11.092;2023-06-14T04:27:30;15.80;48.20
3548;DHT22;1788;49.400;11.092;2023-06-14T04:29:59;15.90;48.50
3548;DHT22;1788;49.400;11.092;2023-06-14T04:32:26;15.90;48.50
3548;DHT22;1788;49.400;11.092;2023-06-14T04:34:53;15.90;48.50
3548;DHT22;1788;49.400;11.092;2023-06-14T04:37:20;15.90;48.60
3548;DHT22;1788;49.400;11.092;2023-06-14T04:39:46;15.90;48.70
3548;DHT22;1788;49.400;11.092;2023-06-14T04:42:14;16.00;48.90
3548;DHT22;1788;49.400;11.092;2023-06-14T04:44:41;16.00;48.80
3548;DHT22;1788;49.400;11.092;2023-06-14T04:47:09;16.10;49.00
3548;DHT22;1788;49.400;11.092;2023-06-14T04:49:35;16.10;49.00
3548;DHT22;1788;49.400;11.092;2023-06-14T04:52:01;16.20;49.10
3548;DHT22;1788;49.400;11.092;2023-06-14T04:54:29;16.30;49.20
3548;DHT22;1788;49.400;11.092;2023-06-14T04:56:55;16.30;49.20
3548;DHT22;1788;49.400;11.092;2023-06-14T04:59:23;16.50;49.20
3548;DHT22;1788;49.400;11.092;2023-06-14T05:01:50;16.50;49.20
3548;DHT22;1788;49.400;11.092;2023-06-14T05:04:16;16.60;49.20
3548;DHT22;1788;49.400;11.092;2023-06-14T05:06:43;16.70;49.20
3548;DHT22;1788;49.400;11.092;2023-06-14T05:09:09;16.70;49.00
3548;DHT22;1788;49.400;11.092;2023-06-14T05:11:37;17.00;49.00
3548;DHT22;1788;49.400;11.092;2023-06-14T05:14:03;16.90;49.00
3548;DHT22;1788;49.400;11.092;2023-06-14T05:16:31;17.10;48.80
3548;DHT22;1788;49.400;11.092;2023-06-14T05:18:57;17.10;48.80
3548;DHT22;1788;49.400;11.092;2023-06-14T05:21:25;17.30;49.10
3548;DHT22;1788;49.400;11.092;2023-06-14T05:23:51;17.30;48.70
3548;DHT22;1788;49.400;11.092;2023-06-14T05:26:18;17.30;48.50
3548;DHT22;1788;49.400;11.092;2023-06-14T05:28:44;17.40;48.50
3548;DHT22;1788;49.400;11.092;2023-06-14T05:31:11;17.50;48.40
3548;DHT22;1788;49.400;11.092;2023-06-14T05:33:39;17.60;48.30
3548;DHT22;1788;49.400;11.092;2023-06-14T05:36:06;17.70;48.30
3548;DHT22;1788;49.400;11.092;2023-06-14T05:38:33;17.70;48.20
3548;DHT22;1788;49.400;11.092;2023-06-14T05:41:00;17.80;48.20
3548;DHT22;1788;49.400;11.092;2023-06-14T05:43:27;17.80;48.10
3548;DHT22;1788;49.400;11.092;2023-06-14T05:45:54;17.90;48.10
3548;DHT22;1788;49.400;11.092;2023-06-14T05:48:20;18.00;48.00
3548;DHT22;1788;49.400;11.092;2023-06-14T05:50:47;18.10;48.10
3548;DHT22;1788;49.400;11.092;2023-06-14T05:53:13;18.10;48.00
3548;DHT22;1788;49.400;11.092;2023-06-14T05:55:40;18.20;47.90
3548;DHT22;1788;49.400;11.092;2023-06-14T05:58:07;18.40;47.90
3548;DHT22;1788;49.400;11.092;2023-06-14T06:00:35;18.30;47.80
3548;DHT22;1788;49.400;11.092;2023-06-14T06:03:01;18.50;47.80
3548;DHT22;1788;49.400;11.092;2023-06-14T06:05:30;18.60;47.70
3548;DHT22;1788;49.400;11.092;2023-06-14T06:07:56;18.60;47.70
3548;DHT22;1788;49.400;11.092;2023-06-14T06:10:24;18.80;47.70
3548;DHT22;1788;49.400;11.092;2023-06-14T06:12:50;18.80;47.50
3548;DHT22;1788;49.400;11.092;2023-06-14T06:15:17;18.90;47.50
3548;DHT22;1788;49.400;11.092;2023-06-14T06:17:43;19.00;47.30
3548;DHT22;1788;49.400;11.092;2023-06-14T06:20:10;19.20;47.90
3548;DHT22;1788;49.400;11.092;2023-06-14T06:22:38;19.40;47.30
3548;DHT22;1788;49.400;11.092;2023-06-14T06:25:04;19.30;47.20
3548;DHT22;1788;49.400;11.092;2023-06-14T06:27:31;19.40;47.10
3548;DHT22;1788;49.400;11.092;2023-06-14T06:29:57;19.50;47.10
3548;DHT22;1788;49.400;11.092;2023-06-14T06:32:24;19.70;47.20
3548;DHT22;1788;49.400;11.092;2023-06-14T06:34:50;19.80;47.10
3548;DHT22;1788;49.400;11.092;2023-06-14T06:37:17;19.90;46.90
3548;DHT22;1788;49.400;11.092;2023-06-14T06:39:44;20.00;46.80
3548;DHT22;1788;49.400;11.092;2023-06-14T06:42:11;20.00;46.70
3548;DHT22;1788;49.400;11.092;2023-06-14T06:44:38;20.20;46.60
3548;DHT22;1788;49.400;11.092;2023-06-14T06:47:04;20.20;46.60
3548;DHT22;1788;49.400;11.092;2023-06-14T06:49:32;20.40;46.50
3548;DHT22;1788;49.400;11.092;2023-06-14T06:51:59;20.40;46.50
3548;DHT22;1788;49.400;11.092;2023-06-14T06:54:25;20.50;46.40
3548;DHT22;1788;49.400;11.092;2023-06-14T06:56:52;20.60;46.30
3548;DHT22;1788;49.400;11.092;2023-06-14T06:59:18;20.70;46.30
3548;DHT22;1788;49.400;11.092;2023-06-14T07:01:46;21.00;46.10
3548;DHT22;1788;49.400;11.092;2023-06-14T07:04:12;20.90;46.00
3548;DHT22;1788;49.400;11.092;2023-06-14T07:06:39;21.20;45.70
3548;DHT22;1788;49.400;11.092;2023-06-14T07:09:06;21.20;45.70
3548;DHT22;1788;49.400;11.092;2023-06-14T07:11:33;21.40;45.50
3548;DHT22;1788;49.400;11.092;2023-06-14T07:13:59;21.50;45.10
3548;DHT22;1788;49.400;11.092;2023-06-14T07:16:26;21.60;44.90
3548;DHT22;1788;49.400;11.092;2023-06-14T07:18:53;21.70;44.80
3548;DHT22;1788;49.400;11.092;2023-06-14T07:21:19;21.80;44.60
3548;DHT22;1788;49.400;11.092;2023-06-14T07:23:46;22.00;44.50
3548;DHT22;1788;49.400;11.092;2023-06-14T07:26:12;22.10;44.30
3548;DHT22;1788;49.400;11.092;2023-06-14T07:28:40;22.30;43.90
3548;DHT22;1788;49.400;11.092;2023-06-14T07:31:06;22.30;43.80
3548;DHT22;1788;49.400;11.092;2023-06-14T07:33:34;22.50;43.50
3548;DHT22;1788;49.400;11.092;2023-06-14T07:36:00;22.50;43.50
3548;DHT22;1788;49.400;11.092;2023-06-14T07:38:27;22.60;43.30
3548;DHT22;1788;49.400;11.092;2023-06-14T07:40:54;22.80;43.20
3548;DHT22;1788;49.400;11.092;2023-06-14T07:43:20;22.90;43.10
3548;DHT22;1788;49.400;11.092;2023-06-14T07:45:48;23.00;42.60
3548;DHT22;1788;49.400;11.092;2023-06-14T07:48:14;23.00;42.60
3548;DHT22;1788;49.400;11.092;2023-06-14T07:50:42;23.20;42.40
3548;DHT22;1788;49.400;11.092;2023-06-14T07:53:08;23.20;42.40
3548;DHT22;1788;49.400;11.092;2023-06-14T07:55:36;23.40;42.20
3548;DHT22;1788;49.400;11.092;2023-06-14T07:58:03;23.40;42.10
3548;DHT22;1788;49.400;11.092;2023-06-14T08:00:29;23.50;42.00
3548;DHT22;1788;49.400;11.092;2023-06-14T08:02:55;23.60;41.80
3548;DHT22;1788;49.400;11.092;2023-06-14T08:05:22;23.60;41.60
3548;DHT22;1788;49.400;11.092;2023-06-14T08:07:49;23.80;41.10
3548;DHT22;1788;49.400;11.092;2023-06-14T08:10:16;23.70;41.00
3548;DHT22;1788;49.400;11.092;2023-06-14T08:12:43;23.90;41.50
3548;DHT22;1788;49.400;11.092;2023-06-14T08:15:10;23.90;40.90
3548;DHT22;1788;49.400;11.092;2023-06-14T08:17:37;23.90;40.60
3548;DHT22;1788;49.400;11.092;2023-06-14T08:20:04;23.90;40.60
3548;DHT22;1788;49.400;11.092;2023-06-14T08:22:31;23.80;40.50
3548;DHT22;1788;49.400;11.092;2023-06-14T08:24:57;23.70;40.30
3548;DHT22;1788;49.400;11.092;2023-06-14T08:27:24;23.70;40.30
3548;DHT22;1788;49.400;11.092;2023-06-14T08:29:51;23.60;40.10
3548;DHT22;1788;49.400;11.092;2023-06-14T08:32:18;23.60;40.00
3548;DHT22;1788;49.400;11.092;2023-06-14T08:34:45;23.60;39.90
3548;DHT22;1788;49.400;11.092;2023-06-14T08:37:12;23.60;39.90
3548;DHT22;1788;49.400;11.092;2023-06-14T08:39:38;23.60;39.80
3548;DHT22;1788;49.400;11.092;2023-06-14T08:42:05;23.60;39.60
3548;DHT22;1788;49.400;11.092;2023-06-14T08:44:32;23.60;39.50
3548;DHT22;1788;49.400;11.092;2023-06-14T08:46:59;23.50;39.30
3548;DHT22;1788;49.400;11.092;2023-06-14T08:49:26;23.50;39.30
3548;DHT22;1788;49.400;11.092;2023-06-14T08:51:56;23.40;38.90
3548;DHT22;1788;49.400;11.092;2023-06-14T08:54:20;23.30;38.80
3548;DHT22;1788;49.400;11.092;2023-06-14T08:56:47;23.20;38.70
3548;DHT22;1788;49.400;11.092;2023-06-14T08:59:14;23.20;38.70
3548;DHT22;1788;49.400;11.092;2023-06-14T09:01:40;23.30;38.80
3548;DHT22;1788;49.400;11.092;2023-06-14T09:04:07;23.40;38.70
3548;DHT22;1788;49.400;11.092;2023-06-14T09:06:33;23.40;38.50
3548;DHT22;1788;49.400;11.092;2023-06-14T09:09:01;23.70;38.60
3548;DHT22;1788;49.400;11.092;2023-06-14T09:11:27;23.70;38.60
3548;DHT22;1788;49.400;11.092;2023-06-14T09:13:54;23.80;38.40
3548;DHT22;1788;49.400;11.092;2023-06-14T09:16:21;23.90;38.70
3548;DHT22;1788;49.400;11.092;2023-06-14T09:18:47;23.90;38.30
3548;DHT22;1788;49.400;11.092;2023-06-14T09:21:15;23.80;38.10
3548;DHT22;1788;49.400;11.092;2023-06-14T09:23:41;23.80;38.00
3548;DHT22;1788;49.400;11.092;2023-06-14T09:26:08;23.80;38.00
3548;DHT22;1788;49.400;11.092;2023-06-14T09:28:35;23.70;37.80
3548;DHT22;1788;49.400;11.092;2023-06-14T09:31:01;23.70;38.00
3548;DHT22;1788;49.400;11.092;2023-06-14T09:33:28;23.60;37.80
3548;DHT22;1788;49.400;11.092;2023-06-14T09:35:55;23.60;37.70
3548;DHT22;1788;49.400;11.092;2023-06-14T09:38:22;23.60;37.70
3548;DHT22;1788;49.400;11.092;2023-06-14T09:40:49;23.60;37.50
3548;DHT22;1788;49.400;11.092;2023-06-14T09:43:15;23.60;37.20
3548;DHT22;1788;49.400;11.092;2023-06-14T09:45:42;23.50;37.00
3548;DHT22;1788;49.400;11.092;2023-06-14T09:48:09;23.60;37.40
3548;DHT22;1788;49.400;11.092;2023-06-14T09:50:35;23.50;36.70
3548;DHT22;1788;49.400;11.092;2023-06-14T09:55:30;23.60;36.50
3548;DHT22;1788;49.400;11.092;2023-06-14T09:57:57;23.70;37.20
3548;DHT22;1788;49.400;11.092;2023-06-14T10:00:23;23.70;36.50
3548;DHT22;1788;49.400;11.092;2023-06-14T10:02:53;23.70;36.30
3548;DHT22;1788;49.400;11.092;2023-06-14T10:05:17;23.60;36.20
3548;DHT22;1788;49.400;11.092;2023-06-14T10:10:11;23.70;36.90
3548;DHT22;1788;49.400;11.092;2023-06-14T10:12:37;23.70;36.30
3548;DHT22;1788;49.400;11.092;2023-06-14T10:15:05;23.80;36.40
3548;DHT22;1788;49.400;11.092;2023-06-14T10:22:29;23.80;36.30
3548;DHT22;1788;49.400;11.092;2023-06-14T10:24:52;23.90;36.50
3548;DHT22;1788;49.400;11.092;2023-06-14T10:27:18;23.80;36.50
3548;DHT22;1788;49.400;11.092;2023-06-14T10:32:12;24.00;36.70
3548;DHT22;1788;49.400;11.092;2023-06-14T10:34:39;23.90;36.60
3548;DHT22;1788;49.400;11.092;2023-06-14T10:37:12;23.90;36.60
3548;DHT22;1788;49.400;11.092;2023-06-14T10:42:01;23.90;36.60
3548;DHT22;1788;49.400;11.092;2023-06-14T10:46:53;23.90;36.50
3548;DHT22;1788;49.400;11.092;2023-06-14T10:54:15;24.00;36.30
3548;DHT22;1788;49.400;11.092;2023-06-14T10:59:08;23.90;36.30
3548;DHT22;1788;49.400;11.092;2023-06-14T11:01:36;23.90;36.30
3548;DHT22;1788;49.400;11.092;2023-06-14T11:06:28;23.90;36.10
3548;DHT22;1788;49.400;11.092;2023-06-14T11:11:22;23.90;36.10
3548;DHT22;1788;49.400;11.092;2023-06-14T11:13:49;23.90;36.10
3548;DHT22;1788;49.400;11.092;2023-06-14T11:16:17;24.10;36.20
3548;DHT22;1788;49.400;11.092;2023-06-14T11:18:43;24.10;36.20
3548;DHT22;1788;49.400;11.092;2023-06-14T11:21:10;24.40;36.60
3548;DHT22;1788;49.400;11.092;2023-06-14T11:23:37;24.40;35.90
3548;DHT22;1788;49.400;11.092;2023-06-14T11:26:03;24.60;35.80
3548;DHT22;1788;49.400;11.092;2023-06-14T11:33:24;25.10;35.30
3548;DHT22;1788;49.400;11.092;2023-06-14T11:35:51;25.00;35.20
3548;DHT22;1788;49.400;11.092;2023-06-14T11:38:18;25.10;35.30
3548;DHT22;1788;49.400;11.092;2023-06-14T11:40:45;25.00;35.10
3548;DHT22;1788;49.400;11.092;2023-06-14T11:43:12;25.00;35.80
3548;DHT22;1788;49.400;11.092;2023-06-14T11:45:38;25.00;35.20
3548;DHT22;1788;49.400;11.092;2023-06-14T11:48:06;25.00;35.30
3548;DHT22;1788;49.400;11.092;2023-06-14T11:50:32;24.90;35.30
3548;DHT22;1788;49.400;11.092;2023-06-14T11:52:59;24.90;35.40
3548;DHT22;1788;49.400;11.092;2023-06-14T11:55:26;24.80;35.40
3548;DHT22;1788;49.400;11.092;2023-06-14T12:00:22;24.80;35.10
3548;DHT22;1788;49.400;11.092;2023-06-14T12:05:14;24.70;34.80
3548;DHT22;1788;49.400;11.092;2023-06-14T12:07:40;24.70;34.90
3548;DHT22;1788;49.400;11.092;2023-06-14T12:10:07;24.70;34.80
3548;DHT22;1788;49.400;11.092;2023-06-14T12:12:35;24.80;34.70
3548;DHT22;1788;49.400;11.092;2023-06-14T12:15:02;25.00;34.60
3548;DHT22;1788;49.400;11.092;2023-06-14T12:17:31;25.50;34.20
3548;DHT22;1788;49.400;11.092;2023-06-14T12:19:55;25.50;34.10
3548;DHT22;1788;49.400;11.092;2023-06-14T12:22:22;26.00;33.80
3548;DHT22;1788;49.400;11.092;2023-06-14T12:24:49;26.00;33.70
3548;DHT22;1788;49.400;11.092;2023-06-14T12:27:16;26.10;33.50
3548;DHT22;1788;49.400;11.092;2023-06-14T12:29:44;26.30;33.30
3548;DHT22;1788;49.400;11.092;2023-06-14T12:32:10;26.30;33.20
3548;DHT22;1788;49.400;11.092;2023-06-14T12:34:37;26.30;33.20
3548;DHT22;1788;49.400;11.092;2023-06-14T12:37:03;26.20;33.10
3548;DHT22;1788;49.400;11.092;2023-06-14T12:39:30;26.20;33.10
3548;DHT22;1788;49.400;11.092;2023-06-14T12:41:57;26.00;33.20
3548;DHT22;1788;49.400;11.092;2023-06-14T12:44:24;25.90;33.10
3548;DHT22;1788;49.400;11.092;2023-06-14T12:46:51;25.80;33.10
3548;DHT22;1788;49.400;11.092;2023-06-14T12:49:18;25.80;33.00
3548;DHT22;1788;49.400;11.092;2023-06-14T12:51:45;25.80;33.10
3548;DHT22;1788;49.400;11.092;2023-06-14T12:54:11;25.70;33.10
3548;DHT22;1788;49.400;11.092;2023-06-14T12:56:38;25.70;33.20
3548;DHT22;1788;49.400;11.092;2023-06-14T12:59:05;25.70;33.20
3548;DHT22;1788;49.400;11.092;2023-06-14T13:01:31;25.70;33.10
3548;DHT22;1788;49.400;11.092;2023-06-14T13:03:59;25.80;32.90
3548;DHT22;1788;49.400;11.092;2023-06-14T13:06:25;25.80;32.90
3548;DHT22;1788;49.400;11.092;2023-06-14T13:08:53;26.30;32.40
3548;DHT22;1788;49.400;11.092;2023-06-14T13:11:19;26.30;32.40
3548;DHT22;1788;49.400;11.092;2023-06-14T13:13:46;26.50;32.10
3548;DHT22;1788;49.400;11.092;2023-06-14T13:16:12;26.60;31.90
3548;DHT22;1788;49.400;11.092;2023-06-14T13:18:39;26.90;31.90
3548;DHT22;1788;49.400;11.092;2023-06-14T13:21:06;27.30;31.60
3548;DHT22;1788;49.400;11.092;2023-06-14T13:23:33;27.20;31.50
3548;DHT22;1788;49.400;11.092;2023-06-14T13:26:00;27.30;31.00
3548;DHT22;1788;49.400;11.092;2023-06-14T13:28:27;27.30;30.90
3548;DHT22;1788;49.400;11.092;2023-06-14T13:30:54;27.30;30.80
3548;DHT22;1788;49.400;11.092;2023-06-14T13:33:21;27.20;30.70
3548;DHT22;1788;49.400;11.092;2023-06-14T13:35:48;27.20;30.60
3548;DHT22;1788;49.400;11.092;2023-06-14T13:38:14;27.20;30.50
3548;DHT22;1788;49.400;11.092;2023-06-14T13:40:41;27.10;30.40
3548;DHT22;1788;49.400;11.092;2023-06-14T13:43:08;27.00;30.30
3548;DHT22;1788;49.400;11.092;2023-06-14T13:45:35;27.00;30.30
3548;DHT22;1788;49.400;11.092;2023-06-14T13:48:02;27.20;30.50
3548;DHT22;1788;49.400;11.092;2023-06-14T13:50:29;27.20;30.40
3548;DHT22;1788;49.400;11.092;2023-06-14T13:52:55;27.30;30.40
3548;DHT22;1788;49.400;11.092;2023-06-14T13:55:22;27.30;30.50
3548;DHT22;1788;49.400;11.092;2023-06-14T13:57:49;27.20;30.50
3548;DHT22;1788;49.400;11.092;2023-06-14T14:00:16;27.10;30.70
3548;DHT22;1788;49.400;11.092;2023-06-14T14:02:43;27.10;30.60
3548;DHT22;1788;49.400;11.092;2023-06-14T14:05:10;26.90;31.10
3548;DHT22;1788;49.400;11.092;2023-06-14T14:07:37;26.90;30.80
3548;DHT22;1788;49.400;11.092;2023-06-14T14:10:04;26.80;31.00
3548;DHT22;1788;49.400;11.092;2023-06-14T14:12:31;26.80;30.80
3548;DHT22;1788;49.400;11.092;2023-06-14T14:14:57;26.70;30.90
3548;DHT22;1788;49.400;11.092;2023-06-14T14:17:24;26.70;31.00
3548;DHT22;1788;49.400;11.092;2023-06-14T14:19:50;26.70;31.00
3548;DHT22;1788;49.400;11.092;2023-06-14T14:22:18;26.60;31.00
3548;DHT22;1788;49.400;11.092;2023-06-14T14:24:44;26.50;30.90
3548;DHT22;1788;49.400;11.092;2023-06-14T14:27:12;26.50;31.00
3548;DHT22;1788;49.400;11.092;2023-06-14T14:29:39;26.50;30.90
3548;DHT22;1788;49.400;11.092;2023-06-14T14:32:05;26.50;31.00
3548;DHT22;1788;49.400;11.092;2023-06-14T14:34:33;26.50;30.90
3548;DHT22;1788;49.400;11.092;2023-06-14T14:36:59;26.40;30.80
3548;DHT22;1788;49.400;11.092;2023-06-14T14:39:27;26.40;30.80
3548;DHT22;1788;49.400;11.092;2023-06-14T14:41:53;26.40;30.80
3548;DHT22;1788;49.400;11.092;2023-06-14T14:44:20;26.40;30.70
3548;DHT22;1788;49.400;11.092;2023-06-14T14:46:47;26.40;30.60
3548;DHT22;1788;49.400;11.092;2023-06-14T14:49:13;26.50;30.50
3548;DHT22;1788;49.400;11.092;2023-06-14T14:51:41;26.60;30.80
3548;DHT22;1788;49.400;11.092;2023-06-14T14:54:07;26.50;30.70
3548;DHT22;1788;49.400;11.092;2023-06-14T14:56:35;26.90;30.80
3548;DHT22;1788;49.400;11.092;2023-06-14T14:59:01;26.80;30.70
3548;DHT22;1788;49.400;11.092;2023-06-14T15:01:28;27.00;30.50
3548;DHT22;1788;49.400;11.092;2023-06-14T15:03:54;27.20;30.40
3548;DHT22;1788;49.400;11.092;2023-06-14T15:06:22;27.40;30.30
3548;DHT22;1788;49.400;11.092;2023-06-14T15:08:48;27.60;30.30
3548;DHT22;1788;49.400;11.092;2023-06-14T15:11:15;27.80;30.20
3548;DHT22;1788;49.400;11.092;2023-06-14T15:13:42;28.00;30.00
3548;DHT22;1788;49.400;11.092;2023-06-14T15:16:09;28.00;30.00
3548;DHT22;1788;49.400;11.092;2023-06-14T15:18:36;28.00;29.90
3548;DHT22;1788;49.400;11.092;2023-06-14T15:21:03;28.00;29.90
3548;DHT22;1788;49.400;11.092;2023-06-14T15:23:30;27.80;29.60
3548;DHT22;1788;49.400;11.092;2023-06-14T15:25:57;27.80;29.60
3548;DHT22;1788;49.400;11.092;2023-06-14T15:28:24;27.70;29.50
3548;DHT22;1788;49.400;11.092;2023-06-14T15:30:50;27.60;29.60
3548;DHT22;1788;49.400;11.092;2023-06-14T15:33:17;27.50;29.50
3548;DHT22;1788;49.400;11.092;2023-06-14T15:35:44;27.50;29.60
3548;DHT22;1788;49.400;11.092;2023-06-14T15:38:11;27.40;29.70
3548;DHT22;1788;49.400;11.092;2023-06-14T15:40:37;27.30;29.70
3548;DHT22;1788;49.400;11.092;2023-06-14T15:43:04;27.20;29.70
3548;DHT22;1788;49.400;11.092;2023-06-14T15:45:30;27.10;29.70
3548;DHT22;1788;49.400;11.092;2023-06-14T15:47:57;27.00;29.70
3548;DHT22;1788;49.400;11.092;2023-06-14T15:50:24;26.90;29.80
3548;DHT22;1788;49.400;11.092;2023-06-14T15:52:51;26.80;29.80
3548;DHT22;1788;49.400;11.092;2023-06-14T15:55:18;26.80;29.90
3548;DHT22;1788;49.400;11.092;2023-06-14T15:57:45;26.80;29.90
3548;DHT22;1788;49.400;11.092;2023-06-14T16:00:12;26.70;29.90
3548;DHT22;1788;49.400;11.092;2023-06-14T16:02:38;26.70;30.00
3548;DHT22;1788;49.400;11.092;2023-06-14T16:05:05;26.60;30.00
3548;DHT22;1788;49.400;11.092;2023-06-14T16:07:32;26.60;30.00
3548;DHT22;1788;49.400;11.092;2023-06-14T16:09:59;26.60;30.00
3548;DHT22;1788;49.400;11.092;2023-06-14T16:12:26;26.50;30.00
3548;DHT22;1788;49.400;11.092;2023-06-14T16:14:53;26.40;30.00
3548;DHT22;1788;49.400;11.092;2023-06-14T16:17:19;26.40;30.00
3548;DHT22;1788;49.400;11.092;2023-06-14T16:19:46;26.40;30.10
3548;DHT22;1788;49.400;11.092;2023-06-14T16:22:13;26.30;30.10
3548;DHT22;1788;49.400;11.092;2023-06-14T16:24:39;26.30;30.20
3548;DHT22;1788;49.400;11.092;2023-06-14T16:27:07;26.20;30.20
3548;DHT22;1788;49.400;11.092;2023-06-14T16:29:33;26.20;30.20